Time;durP1;ratioP1;P1;durP2;ratioP2;P2;SDS_P1;SDS_P2;PMS_P1;PMS_P2;Temp;Humidity;BMP_temperature;BMP_pressure;BME280_temperature;BME280_humidity;BME280_pressure;Samples;Min_cycle;Max_cycle;Signal;HPM_P1;HPM_P2
2021/12/03 00:00:30;;;;;;;5.03;1.80;;;32.30;93.70;;;;;;5100849;27;20044;-77
2021/12/03 00:02:58;;;;;;;2.80;1.75;;;32.00;94.00;;;;;;5125480;27;20016;-77
2021/12/03 00:05:25;;;;;;;3.47;2.30;;;32.20;93.70;;;;;;5124098;27;20015;-77
2021/12/03 00:07:52;;;;;;;4.15;1.50;;;32.60;93.70;;;;;;5119183;27;20026;-78
2021/12/03 00:10:23;;;;;;;5.20;1.83;;;32.90;93.70;;;;;;5126003;27;20052;-78
2021/12/03 00:12:52;;;;;;;2.97;1.30;;;33.30;93.50;;;;;;5129389;27;20081;-76
2021/12/03 00:15:21;;;;;;;4.50;2.17;;;33.90;94.40;;;;;;5130197;27;20028;-82
2021/12/03 00:17:48;;;;;;;3.92;1.58;;;34.00;92.90;;;;;;5128240;27;20027;-83
2021/12/03 00:20:16;;;;;;;1.35;1.25;;;34.20;92.70;;;;;;5124777;27;20033;-77
2021/12/03 00:23:05;;;;;;;2.10;1.33;;;34.40;91.70;;;;;;5128403;27;20042;-85
2021/12/03 00:25:41;;;;;;;9.65;1.50;;;34.60;90.80;;;;;;5081241;27;20050;-82
2021/12/03 00:28:09;;;;;;;2.95;1.40;;;34.80;89.90;;;;;;5120086;27;20096;-79
2021/12/03 00:30:37;;;;;;;3.92;1.40;;;35.00;90.00;;;;;;5117665;27;20026;-80
2021/12/03 00:33:06;;;;;;;3.17;1.73;;;35.10;88.40;;;;;;5120339;27;20027;-76
2021/12/03 00:35:34;;;;;;;3.33;1.80;;;34.80;85.10;;;;;;5119689;27;20027;-81
2021/12/03 00:38:02;;;;;;;4.05;2.38;;;34.70;86.10;;;;;;5124269;28;20388;-80
2021/12/03 00:40:36;;;;;;;3.65;1.75;;;34.80;85.10;;;;;;5125754;28;20119;-77
2021/12/03 00:43:04;;;;;;;2.72;1.77;;;34.80;86.10;;;;;;5119840;28;20042;-78
2021/12/03 00:45:32;;;;;;;2.42;1.58;;;35.00;84.30;;;;;;5131967;28;20027;-75
2021/12/03 00:48:04;;;;;;;2.80;1.73;;;35.00;84.70;;;;;;5131994;28;20057;-76
2021/12/03 00:50:33;;;;;;;2.67;2.33;;;35.20;83.60;;;;;;5127604;28;20015;-73
2021/12/03 00:53:01;;;;;;;4.22;1.98;;;35.30;83.50;;;;;;5131369;28;20027;-75
2021/12/03 00:55:30;;;;;;;4.50;1.98;;;35.20;84.10;;;;;;5130507;28;20509;-77
2021/12/03 00:57:58;;;;;;;3.30;1.95;;;34.90;84.90;;;;;;5129030;27;20055;-75
2021/12/03 01:00:31;;;;;;;5.13;2.03;;;34.40;86.50;;;;;;5131746;27;20102;-74
2021/12/03 01:03:00;;;;;;;2.08;1.20;;;33.80;87.50;;;;;;5131887;27;20033;-79
2021/12/03 01:05:28;;;;;;;3.17;1.40;;;33.60;89.70;;;;;;5132844;27;20115;-77
2021/12/03 01:07:56;;;;;;;2.83;1.45;;;33.60;89.10;;;;;;5132097;27;20027;-74
2021/12/03 01:10:24;;;;;;;3.58;1.15;;;33.60;88.70;;;;;;5133903;27;20057;-77
2021/12/03 01:12:53;;;;;;;6.55;2.75;;;33.40;88.70;;;;;;5130157;27;20042;-75
2021/12/03 01:15:30;;;;;;;6.38;1.30;;;32.90;89.50;;;;;;5131184;27;20057;-76
2021/12/03 01:17:59;;;;;;;3.38;1.05;;;32.80;90.10;;;;;;5135672;27;20500;-75
2021/12/03 01:20:27;;;;;;;3.13;0.98;;;32.80;90.50;;;;;;5129548;27;20090;-75
2021/12/03 01:22:55;;;;;;;2.08;1.08;;;32.90;90.60;;;;;;5135524;27;20027;-78
2021/12/03 01:25:23;;;;;;;3.17;0.90;;;32.90;90.40;;;;;;5123978;27;20019;-76
2021/12/03 01:27:52;;;;;;;4.85;1.20;;;32.70;90.60;;;;;;5132230;27;20106;-74
2021/12/03 01:30:23;;;;;;;3.15;0.98;;;32.70;90.30;;;;;;5132264;27;20031;-75
2021/12/03 01:32:51;;;;;;;1.88;0.82;;;32.80;90.40;;;;;;5134120;27;20027;-73
2021/12/03 01:35:19;;;;;;;3.22;1.00;;;32.70;90.50;;;;;;5133693;27;20031;-78
2021/12/03 01:37:48;;;;;;;1.58;1.10;;;32.60;89.90;;;;;;5136148;27;20100;-76
2021/12/03 01:40:20;;;;;;;2.60;1.15;;;32.70;90.00;;;;;;5129596;27;20499;-77
2021/12/03 01:42:47;;;;;;;1.48;0.90;;;32.80;90.50;;;;;;5128812;27;20110;-75
2021/12/03 01:45:18;;;;;;;6.05;2.10;;;33.00;90.30;;;;;;5121621;27;20020;-78
2021/12/03 01:47:48;;;;;;;3.40;1.50;;;32.70;90.40;;;;;;5122296;27;20023;-78
2021/12/03 01:50:16;;;;;;;5.60;1.30;;;32.50;90.60;;;;;;5127746;27;20030;-75
2021/12/03 01:52:44;;;;;;;4.88;1.20;;;32.20;90.60;;;;;;5109545;27;20897;-78
2021/12/03 01:55:14;;;;;;;8.30;2.05;;;32.20;90.90;;;;;;5123969;27;20118;-79
2021/12/03 01:57:42;;;;;;;7.35;1.58;;;32.20;90.50;;;;;;5104667;27;20036;-79
2021/12/03 02:00:15;;;;;;;3.60;1.67;;;32.10;90.80;;;;;;5128354;27;20076;-86
2021/12/03 02:02:43;;;;;;;7.45;1.80;;;32.20;91.10;;;;;;5131672;27;20019;-76
2021/12/03 02:05:11;;;;;;;6.03;1.77;;;32.30;91.30;;;;;;5125634;27;20019;-76
2021/12/03 02:07:38;;;;;;;4.20;2.13;;;32.50;91.60;;;;;;5128887;27;20035;-79
2021/12/03 02:10:07;;;;;;;3.80;2.08;;;32.70;90.40;;;;;;5126783;27;20027;-77
2021/12/03 02:12:34;;;;;;;6.22;2.53;;;32.70;90.00;;;;;;5125116;27;20031;-82
2021/12/03 02:15:03;;;;;;;4.80;2.00;;;32.30;90.60;;;;;;5122247;27;20023;-83
2021/12/03 02:17:31;;;;;;;5.68;2.22;;;32.30;90.60;;;;;;5125556;27;20745;-81
2021/12/03 02:19:59;;;;;;;8.25;2.25;;;32.30;90.60;;;;;;5119795;27;20073;-76
2021/12/03 02:22:27;;;;;;;5.25;2.20;;;32.30;90.50;;;;;;5121998;27;20019;-77
2021/12/03 02:24:54;;;;;;;5.15;2.42;;;32.30;90.00;;;;;;5127505;27;20023;-78
2021/12/03 02:27:21;;;;;;;6.00;2.50;;;32.20;90.00;;;;;;5126061;27;20031;-78
2021/12/03 02:29:49;;;;;;;7.82;2.17;;;32.30;90.50;;;;;;5121905;27;20023;-79
2021/12/03 02:32:18;;;;;;;4.20;2.95;;;32.40;90.30;;;;;;5123798;27;20126;-75
2021/12/03 02:34:45;;;;;;;4.00;2.05;;;32.30;90.20;;;;;;5103737;27;20027;-79
2021/12/03 02:37:13;;;;;;;5.45;2.50;;;32.20;90.00;;;;;;5125226;27;20043;-77
2021/12/03 02:39:40;;;;;;;9.15;3.10;;;32.20;90.00;;;;;;5125163;27;20023;-78
2021/12/03 02:42:08;;;;;;;5.90;2.75;;;32.20;90.30;;;;;;5128936;27;20038;-78
2021/12/03 02:44:35;;;;;;;6.25;3.17;;;31.50;90.60;;;;;;5121629;27;20038;-75
2021/12/03 02:47:04;;;;;;;5.00;2.38;;;31.00;90.80;;;;;;5131162;27;20027;-74
2021/12/03 02:49:36;;;;;;;4.72;2.53;;;30.50;91.20;;;;;;5128804;27;20038;-76
2021/12/03 02:52:04;;;;;;;5.63;2.67;;;30.90;91.10;;;;;;5135435;27;20023;-77
2021/12/03 02:54:31;;;;;;;5.82;3.08;;;31.30;91.10;;;;;;5125582;27;20059;-78
2021/12/03 02:56:59;;;;;;;4.60;3.20;;;31.00;91.00;;;;;;5126480;27;20386;-77
2021/12/03 02:59:26;;;;;;;7.95;2.97;;;30.60;91.50;;;;;;5127324;27;20103;-78
2021/12/03 03:01:54;;;;;;;7.03;2.63;;;30.90;91.40;;;;;;5121705;27;20025;-79
2021/12/03 03:04:22;;;;;;;7.68;3.05;;;31.50;91.20;;;;;;5110487;27;20038;-80
2021/12/03 03:06:49;;;;;;;6.18;3.03;;;31.70;90.60;;;;;;5122449;27;20074;-78
2021/12/03 03:09:17;;;;;;;3.25;1.77;;;31.70;90.70;;;;;;5120888;27;20019;-83
2021/12/03 03:11:44;;;;;;;4.82;2.63;;;31.70;90.30;;;;;;5120522;27;20030;-81
2021/12/03 03:14:12;;;;;;;7.50;3.05;;;32.00;90.40;;;;;;5124397;27;20065;-75
2021/12/03 03:16:39;;;;;;;8.85;3.42;;;32.30;89.90;;;;;;5120065;27;20031;-76
2021/12/03 03:19:11;;;;;;;6.03;3.05;;;32.20;90.20;;;;;;5127845;27;20034;-76
2021/12/03 03:21:39;;;;;;;3.75;2.47;;;32.20;89.70;;;;;;5121452;27;20047;-74
2021/12/03 03:24:08;;;;;;;6.22;3.30;;;32.30;89.40;;;;;;5125308;27;20019;-80
2021/12/03 03:26:38;;;;;;;5.65;2.63;;;32.20;90.20;;;;;;5123033;27;20385;-75
2021/12/03 03:29:08;;;;;;;6.97;3.35;;;31.90;90.00;;;;;;5128443;27;20123;-77
2021/12/03 03:31:37;;;;;;;6.32;3.63;;;31.70;90.40;;;;;;5124081;27;20038;-80
2021/12/03 03:34:06;;;;;;;11.13;4.38;;;31.50;90.50;;;;;;5126548;27;20090;-79
2021/12/03 03:36:39;;;;;;;6.38;3.53;;;31.30;90.60;;;;;;5099850;27;20023;-80
2021/12/03 03:39:08;;;;;;;8.02;3.38;;;31.20;90.80;;;;;;5123972;27;20058;-80
2021/12/03 03:41:36;;;;;;;8.27;3.90;;;31.40;90.50;;;;;;5123018;27;20012;-79
2021/12/03 03:44:03;;;;;;;8.35;3.42;;;31.20;90.90;;;;;;5120958;27;20070;-79
2021/12/03 03:46:31;;;;;;;9.50;4.20;;;31.10;90.60;;;;;;5122840;27;20424;-85
2021/12/03 03:48:58;;;;;;;9.30;4.10;;;30.90;90.70;;;;;;5122251;27;20117;-79
2021/12/03 03:51:26;;;;;;;9.13;3.63;;;31.00;91.40;;;;;;5120520;27;20023;-79
2021/12/03 03:53:54;;;;;;;10.73;4.45;;;31.00;90.70;;;;;;5125159;27;20038;-77
2021/12/03 03:56:21;;;;;;;7.05;4.25;;;31.00;91.30;;;;;;5123848;27;20042;-76
2021/12/03 03:58:49;;;;;;;6.43;4.47;;;31.10;90.80;;;;;;5112468;27;20387;-74
2021/12/03 04:01:16;;;;;;;4.55;4.03;;;31.40;91.30;;;;;;5115980;27;20522;-76
2021/12/03 04:03:46;;;;;;;8.25;4.70;;;31.60;90.30;;;;;;5125173;27;20031;-75
2021/12/03 04:06:17;;;;;;;7.68;3.60;;;31.50;90.40;;;;;;5127038;27;20021;-76
2021/12/03 04:08:46;;;;;;;7.85;4.15;;;31.40;90.30;;;;;;5121986;27;20023;-75
2021/12/03 04:11:16;;;;;;;8.35;4.78;;;30.60;90.60;;;;;;5131126;27;20029;-77
2021/12/03 04:13:43;;;;;;;8.48;4.10;;;30.40;92.00;;;;;;5130828;27;20028;-75
2021/12/03 04:16:11;;;;;;;8.50;4.88;;;30.50;90.80;;;;;;5130327;27;20030;-75
2021/12/03 04:18:38;;;;;;;10.80;4.93;;;30.10;91.00;;;;;;5131648;27;20051;-74
2021/12/03 04:21:05;;;;;;;10.75;5.28;;;29.40;91.90;;;;;;5129254;27;20589;-77
2021/12/03 04:23:33;;;;;;;11.25;5.53;;;28.80;92.50;;;;;;5124167;27;20420;-74
2021/12/03 04:26:01;;;;;;;12.10;6.40;;;28.40;93.10;;;;;;5129137;27;20359;-75
2021/12/03 04:28:28;;;;;;;9.48;6.15;;;28.00;93.50;;;;;;5119059;27;20022;-74
2021/12/03 04:30:55;;;;;;;9.25;4.97;;;27.60;93.70;;;;;;5129053;27;20458;-74
2021/12/03 04:33:23;;;;;;;15.20;6.05;;;27.20;94.50;;;;;;5118480;27;20042;-79
2021/12/03 04:35:50;;;;;;;11.80;5.95;;;27.00;94.80;;;;;;5124153;27;20030;-76
2021/12/03 04:38:18;;;;;;;10.80;6.43;;;26.80;95.20;;;;;;5128807;27;20108;-75
2021/12/03 04:40:46;;;;;;;15.35;6.00;;;26.60;95.70;;;;;;5125619;28;20033;-78
2021/12/03 04:43:14;;;;;;;19.05;8.55;;;26.40;96.10;;;;;;5127509;28;20147;-77
2021/12/03 04:45:41;;;;;;;10.57;6.25;;;26.00;96.70;;;;;;5128802;28;20521;-75
2021/12/03 04:48:09;;;;;;;13.27;6.25;;;25.70;97.80;;;;;;5129274;28;20517;-76
2021/12/03 04:50:40;;;;;;;14.52;6.20;;;25.40;98.40;;;;;;5128572;28;20049;-75
2021/12/03 04:53:08;;;;;;;16.98;7.13;;;25.10;99.20;;;;;;5131138;28;20072;-75
2021/12/03 04:55:36;;;;;;;14.65;6.20;;;24.70;99.90;;;;;;5119530;28;20135;-76
2021/12/03 04:58:05;;;;;;;11.60;6.03;;;24.40;99.90;;;;;;5127942;28;21106;-76
2021/12/03 05:00:49;;;;;;;15.43;6.43;;;24.00;99.90;;;;;;5120599;28;20030;-78
2021/12/03 05:03:17;;;;;;;15.43;6.93;;;23.60;99.90;;;;;;5129651;28;20485;-76
2021/12/03 05:05:51;;;;;;;17.40;6.32;;;23.20;99.90;;;;;;5128852;28;20030;-75
2021/12/03 05:08:19;;;;;;;15.50;6.03;;;23.10;99.90;;;;;;5119589;28;20031;-75
2021/12/03 05:10:47;;;;;;;13.75;6.07;;;23.20;99.90;;;;;;5119510;28;20378;-76
2021/12/03 05:13:18;;;;;;;13.82;5.28;;;23.20;99.90;;;;;;5107797;28;20056;-77
2021/12/03 05:15:46;;;;;;;20.70;6.25;;;23.10;99.90;;;;;;5111923;28;20019;-77
2021/12/03 05:18:17;;;;;;;13.95;6.55;;;23.10;99.90;;;;;;5137956;28;20062;-76
2021/12/03 05:20:46;;;;;;;14.48;6.10;;;23.10;99.90;;;;;;5125077;28;20031;-76
2021/12/03 05:23:14;;;;;;;18.10;6.55;;;23.50;99.90;;;;;;5128701;28;20023;-76
2021/12/03 05:25:42;;;;;;;11.27;5.20;;;24.00;99.90;;;;;;5127660;28;20079;-76
2021/12/03 05:28:11;;;;;;;12.10;5.75;;;24.00;99.90;;;;;;5130956;28;20034;-75
2021/12/03 05:30:38;;;;;;;10.68;5.63;;;24.00;99.90;;;;;;5126598;28;20053;-75
2021/12/03 05:33:07;;;;;;;12.55;5.68;;;24.00;99.90;;;;;;5129085;28;20027;-75
2021/12/03 05:35:35;;;;;;;16.83;6.53;;;24.10;99.90;;;;;;5125149;28;20084;-77
2021/12/03 05:38:03;;;;;;;12.95;5.80;;;24.10;99.90;;;;;;5112645;28;20104;-77
2021/12/03 05:40:31;;;;;;;14.48;6.65;;;24.00;99.90;;;;;;5122679;28;20482;-76
2021/12/03 05:42:59;;;;;;;17.77;6.40;;;23.80;99.90;;;;;;5130472;28;20031;-78
2021/12/03 05:45:30;;;;;;;13.68;6.13;;;23.80;99.90;;;;;;5129964;27;20026;-77
2021/12/03 05:47:58;;;;;;;15.18;6.30;;;23.70;99.90;;;;;;5133421;27;20037;-78
2021/12/03 05:50:26;;;;;;;14.63;6.00;;;23.70;99.90;;;;;;5134650;27;20031;-77
2021/12/03 05:52:55;;;;;;;14.70;7.10;;;23.90;99.90;;;;;;5131565;27;20470;-76
2021/12/03 05:55:22;;;;;;;17.17;5.80;;;23.90;99.90;;;;;;5131132;27;20026;-75
2021/12/03 05:57:50;;;;;;;10.82;5.38;;;24.00;99.90;;;;;;5106136;27;20028;-76
2021/12/03 06:00:24;;;;;;;14.57;6.20;;;24.10;99.90;;;;;;5111161;27;20027;-76
2021/12/03 06:02:53;;;;;;;12.98;6.50;;;24.10;99.90;;;;;;5132848;27;20390;-77
2021/12/03 06:05:24;;;;;;;15.80;6.22;;;24.30;99.90;;;;;;5128102;27;20019;-78
2021/12/03 06:07:51;;;;;;;18.63;6.47;;;24.40;99.90;;;;;;5113303;27;20118;-74
2021/12/03 06:10:19;;;;;;;15.07;7.30;;;24.50;99.90;;;;;;5125229;27;20027;-78
2021/12/03 06:12:47;;;;;;;11.98;6.72;;;25.00;99.90;;;;;;5133707;27;20015;-75
2021/12/03 06:15:15;;;;;;;10.45;6.47;;;25.30;99.90;;;;;;5133398;27;20113;-81
2021/12/03 06:17:50;;;;;;;12.50;5.85;;;25.10;99.90;;;;;;5133775;27;20382;-77
2021/12/03 06:20:18;;;;;;;15.27;6.05;;;24.90;99.90;;;;;;5128056;27;20106;-80
2021/12/03 06:22:46;;;;;;;17.27;7.65;;;24.40;99.90;;;;;;5118683;27;20047;-79
2021/12/03 06:25:15;;;;;;;10.18;6.25;;;24.20;99.90;;;;;;5118011;27;20068;-76
2021/12/03 06:27:43;;;;;;;12.98;6.53;;;23.80;99.90;;;;;;5132508;27;20142;-75
2021/12/03 06:30:16;;;;;;;12.00;6.82;;;23.60;99.90;;;;;;5124627;27;20049;-80
2021/12/03 06:32:43;;;;;;;16.33;6.65;;;23.60;99.90;;;;;;5122083;27;20439;-75
2021/12/03 06:35:13;;;;;;;12.30;5.97;;;23.60;99.90;;;;;;5124956;27;20027;-77
2021/12/03 06:37:40;;;;;;;14.32;6.13;;;23.60;99.90;;;;;;5124333;27;20060;-82
2021/12/03 06:40:11;;;;;;;13.18;8.35;;;23.50;99.90;;;;;;5105415;27;20027;-81
2021/12/03 06:42:38;;;;;;;17.98;7.70;;;23.50;99.90;;;;;;5129575;27;20028;-78
2021/12/03 06:45:06;;;;;;;18.85;7.43;;;23.50;99.90;;;;;;5127118;27;20357;-78
2021/12/03 06:47:34;;;;;;;18.23;7.38;;;23.50;99.90;;;;;;5120922;27;20097;-82
2021/12/03 06:50:03;;;;;;;12.38;5.95;;;23.60;99.90;;;;;;5118682;27;20049;-79
2021/12/03 06:52:32;;;;;;;11.00;6.50;;;23.70;99.90;;;;;;5130727;27;20027;-79
2021/12/03 06:55:03;;;;;;;16.15;6.75;;;23.70;99.90;;;;;;5133240;27;20084;-77
2021/12/03 06:57:30;;;;;;;13.93;7.10;;;23.70;99.90;;;;;;5131609;27;20117;-82
2021/12/03 06:59:59;;;;;;;13.52;6.28;;;23.70;99.90;;;;;;5121576;27;20031;-81
2021/12/03 07:02:26;;;;;;;15.18;7.18;;;23.60;99.90;;;;;;5133517;27;20030;-80
2021/12/03 07:04:53;;;;;;;10.05;5.82;;;23.80;99.90;;;;;;5127223;27;20561;-78
2021/12/03 07:07:21;;;;;;;16.75;5.70;;;23.70;99.90;;;;;;5119534;27;20023;-77
2021/12/03 07:09:48;;;;;;;14.88;5.65;;;23.70;99.90;;;;;;5122459;27;20023;-78
2021/12/03 07:12:16;;;;;;;10.20;6.65;;;23.60;99.90;;;;;;5130760;27;20041;-78
2021/12/03 07:14:43;;;;;;;16.67;6.15;;;23.50;99.90;;;;;;5120593;27;20026;-75
2021/12/03 07:17:10;;;;;;;13.80;6.72;;;23.60;99.90;;;;;;5121127;27;20031;-76
2021/12/03 07:19:38;;;;;;;16.58;7.43;;;23.70;99.90;;;;;;5123253;27;20081;-76
2021/12/03 07:22:05;;;;;;;15.25;6.35;;;23.60;99.90;;;;;;5122921;27;20008;-76
2021/12/03 07:24:34;;;;;;;16.85;5.75;;;23.50;99.90;;;;;;5119367;27;20935;-78
2021/12/03 07:27:01;;;;;;;13.45;5.65;;;23.50;99.90;;;;;;5123809;27;20019;-76
2021/12/03 07:29:31;;;;;;;13.15;5.63;;;23.40;99.90;;;;;;5125762;27;20374;-77
2021/12/03 07:31:59;;;;;;;16.30;6.65;;;23.20;99.90;;;;;;5123709;27;20035;-76
2021/12/03 07:34:26;;;;;;;17.05;7.40;;;23.10;99.90;;;;;;5125331;27;20050;-79
2021/12/03 07:36:53;;;;;;;17.48;7.63;;;23.20;99.90;;;;;;5128334;27;20038;-76
2021/12/03 07:39:21;;;;;;;13.32;6.50;;;23.30;99.90;;;;;;5129024;27;20034;-77
2021/12/03 07:41:48;;;;;;;15.13;5.97;;;23.40;99.90;;;;;;5129836;27;20027;-79
2021/12/03 07:44:16;;;;;;;11.20;5.57;;;23.40;99.90;;;;;;5126750;27;20031;-80
2021/12/03 07:46:43;;;;;;;8.65;5.40;;;23.30;99.90;;;;;;5130054;27;20019;-77
2021/12/03 07:49:10;;;;;;;11.35;6.38;;;23.30;99.90;;;;;;5130301;27;20047;-78
2021/12/03 07:51:38;;;;;;;12.15;5.65;;;23.30;99.90;;;;;;5130255;27;20054;-79
2021/12/03 07:54:05;;;;;;;15.77;7.78;;;23.20;99.90;;;;;;5129679;27;20027;-78
2021/12/03 07:56:32;;;;;;;12.18;6.80;;;23.20;99.90;;;;;;5127169;27;20026;-80
2021/12/03 07:59:00;;;;;;;11.18;6.55;;;23.10;99.90;;;;;;5125595;27;20953;-75
2021/12/03 08:01:27;;;;;;;15.73;7.95;;;23.10;99.90;;;;;;5113975;27;20030;-78
2021/12/03 08:03:55;;;;;;;16.13;9.55;;;23.00;99.90;;;;;;5134298;27;20051;-77
2021/12/03 08:06:22;;;;;;;15.30;8.85;;;23.10;99.90;;;;;;5124695;27;20027;-79
2021/12/03 08:08:49;;;;;;;13.25;7.05;;;23.20;99.90;;;;;;5126530;27;20031;-76
2021/12/03 08:11:17;;;;;;;12.82;6.82;;;23.30;99.90;;;;;;5120230;27;20072;-78
2021/12/03 08:13:44;;;;;;;10.68;6.63;;;23.40;99.90;;;;;;5112560;27;20061;-77
2021/12/03 08:16:12;;;;;;;10.98;7.93;;;23.40;99.90;;;;;;5122098;27;20027;-77
2021/12/03 08:18:39;;;;;;;12.68;8.40;;;23.20;99.90;;;;;;5131092;27;20031;-77
2021/12/03 08:21:06;;;;;;;13.52;8.18;;;23.10;99.90;;;;;;5129174;27;20042;-77
2021/12/03 08:23:34;;;;;;;15.30;6.60;;;23.20;99.90;;;;;;5129263;27;20020;-78
2021/12/03 08:26:01;;;;;;;15.13;6.65;;;23.20;99.90;;;;;;5124269;27;20355;-78
2021/12/03 08:28:29;;;;;;;15.20;6.88;;;23.00;99.90;;;;;;5130390;27;20102;-78
2021/12/03 08:30:56;;;;;;;19.15;6.85;;;22.90;99.90;;;;;;5129055;27;20035;-76
2021/12/03 08:33:23;;;;;;;8.27;5.82;;;22.90;99.90;;;;;;5115887;27;20031;-78
2021/12/03 08:35:50;;;;;;;16.98;7.85;;;23.00;99.90;;;;;;5127054;27;20018;-78
2021/12/03 08:38:18;;;;;;;9.15;6.20;;;23.00;99.90;;;;;;5129527;27;20043;-77
2021/12/03 08:40:45;;;;;;;13.55;6.78;;;23.10;99.90;;;;;;5124029;28;20078;-78
2021/12/03 08:43:13;;;;;;;13.50;6.13;;;23.20;99.90;;;;;;5129021;28;20080;-77
2021/12/03 08:45:41;;;;;;;11.80;6.45;;;23.20;99.90;;;;;;5126874;28;20071;-78
2021/12/03 08:48:08;;;;;;;15.85;7.75;;;23.10;99.90;;;;;;5122219;28;22111;-77
2021/12/03 08:50:46;;;;;;;17.48;7.80;;;23.10;99.90;;;;;;5123926;28;20023;-79
2021/12/03 08:55:47;;;;;;;14.88;8.90;;;22.80;99.90;;;;;;5131166;28;20042;-78
2021/12/03 08:58:16;;;;;;;14.18;7.43;;;22.70;99.90;;;;;;5113019;28;20390;-79
2021/12/03 09:00:44;;;;;;;18.95;8.18;;;22.60;99.90;;;;;;5132756;28;20069;-82
2021/12/03 09:03:12;;;;;;;17.88;7.72;;;22.60;99.90;;;;;;5129456;28;20035;-82
2021/12/03 09:05:40;;;;;;;14.18;7.18;;;22.60;99.90;;;;;;5129850;28;20015;-83
2021/12/03 09:08:07;;;;;;;15.00;6.38;;;22.50;99.90;;;;;;5115624;28;20024;-81
2021/12/03 09:10:35;;;;;;;12.48;6.60;;;22.60;99.90;;;;;;5123971;28;20099;-81
2021/12/03 09:13:03;;;;;;;11.25;6.90;;;22.50;99.90;;;;;;5131330;28;20042;-81
2021/12/03 09:15:37;;;;;;;11.77;6.05;;;22.60;99.90;;;;;;5128014;28;20091;-82
2021/12/03 09:21:52;;;;;;;10.93;6.40;;;22.50;99.90;;;;;;5110224;27;20123;-77
2021/12/03 09:26:34;;;;;;;15.63;6.38;;;22.10;99.90;;;;;;5136346;27;20042;-80
2021/12/03 09:29:04;;;;;;;12.35;6.00;;;21.90;99.90;;;;;;5138245;27;20046;-81
2021/12/03 09:31:37;;;;;;;13.93;6.35;;;21.80;99.90;;;;;;5122478;27;20027;-74
2021/12/03 09:34:09;;;;;;;14.43;7.60;;;21.70;99.90;;;;;;5120922;27;20039;-76
2021/12/03 09:36:40;;;;;;;11.18;5.13;;;21.60;99.90;;;;;;5125048;27;20099;-76
2021/12/03 09:39:09;;;;;;;11.93;6.50;;;21.40;99.90;;;;;;5134208;27;20046;-74
2021/12/03 09:41:37;;;;;;;17.73;7.70;;;21.30;99.90;;;;;;5133992;27;20019;-75
2021/12/03 09:44:05;;;;;;;16.70;6.45;;;21.20;99.90;;;;;;5128585;27;20034;-76
2021/12/03 09:46:32;;;;;;;22.33;7.97;;;21.20;99.90;;;;;;5124436;27;20029;-75
2021/12/03 09:57:12;;;;;;;17.52;10.02;;;20.90;99.90;;;;;;5121802;27;20135;-73
2021/12/03 10:13:21;;;;;;;21.75;12.65;;;20.70;99.90;;;;;;5120281;27;20046;-76
2021/12/03 10:16:09;;;;;;;25.00;12.18;;;20.60;99.90;;;;;;5123363;27;20042;-76
2021/12/03 10:18:53;;;;;;;18.65;10.93;;;20.60;99.90;;;;;;5124833;27;20027;-75
2021/12/03 10:38:55;;;;;;;19.38;10.98;;;20.70;99.90;;;;;;5114795;27;20062;-76
2021/12/03 10:41:31;;;;;;;;;;;20.80;99.90;;;;;;5116749;27;21305;-76
2021/12/03 10:44:09;;;;;;;16.15;10.73;;;20.70;99.90;;;;;;5128816;27;19907;-73
2021/12/03 10:51:56;;;;;;;20.60;12.48;;;20.60;99.90;;;;;;5117176;27;20106;-76
2021/12/03 10:57:12;;;;;;;19.50;12.18;;;20.60;99.90;;;;;;5122064;27;20046;-76
2021/12/03 11:00:11;;;;;;;22.05;13.95;;;20.50;99.90;;;;;;5119447;27;20389;-78
2021/12/03 11:38:34;;;;;;;22.80;12.05;;;20.20;99.90;;;;;;5128512;27;20118;-76
2021/12/03 11:47:13;;;;;;;14.77;8.63;;;20.20;99.90;;;;;;5119646;27;20550;-75
2021/12/03 12:16:25;;;;;;;18.15;8.23;;;20.00;99.90;;;;;;5125612;27;20857;-77
2021/12/03 13:06:35;;;;;;;9.48;5.03;;;20.00;99.90;;;;;;5130638;27;20067;-81
2021/12/03 13:16:58;;;;;;;12.98;4.97;;;20.00;99.90;;;;;;5134516;27;20516;-81
2021/12/03 13:31:07;;;;;;;9.48;3.75;;;20.10;99.90;;;;;;5137026;27;20086;-81
2021/12/03 14:36:40;;;;;;;11.80;4.93;;;20.00;99.90;;;;;;5123153;27;20039;-80
2021/12/03 14:44:30;;;;;;;9.30;5.32;;;20.00;99.90;;;;;;5110685;28;20107;-80
2021/12/03 14:55:57;;;;;;;9.23;4.07;;;20.00;99.90;;;;;;5101250;28;20035;-80
2021/12/03 14:58:33;;;;;;;12.32;3.90;;;20.00;99.90;;;;;;5112487;28;20023;-79
2021/12/03 15:01:13;;;;;;;10.05;4.05;;;19.90;99.90;;;;;;5111660;27;20023;-79
2021/12/03 15:08:48;;;;;;;5.25;3.33;;;20.00;99.90;;;;;;5108352;28;20483;-78
2021/12/03 15:14:30;;;;;;;10.45;4.35;;;20.00;99.90;;;;;;5114865;28;20466;-80
2021/12/03 15:19:18;;;;;;;8.07;3.92;;;20.00;99.90;;;;;;5105329;28;20044;-78
2021/12/03 15:31:47;;;;;;;12.30;3.72;;;20.10;99.90;;;;;;5112232;28;20379;-81
2021/12/03 15:58:36;;;;;;;13.90;6.20;;;20.00;99.90;;;;;;5134155;27;20454;-79
2021/12/03 16:03:55;;;;;;;10.68;5.45;;;20.10;99.90;;;;;;5131898;27;20030;-76
2021/12/03 16:06:34;;;;;;;13.20;6.10;;;20.00;99.90;;;;;;5131836;27;20057;-78
2021/12/03 16:09:10;;;;;;;11.38;5.95;;;20.00;99.90;;;;;;5125852;27;20023;-77
2021/12/03 16:11:45;;;;;;;16.02;6.05;;;20.00;99.90;;;;;;5129707;27;20027;-79
2021/12/03 16:17:07;;;;;;;12.77;5.80;;;20.10;99.90;;;;;;5129689;27;20079;-77
2021/12/03 16:19:57;;;;;;;10.50;5.28;;;20.10;99.90;;;;;;5127727;27;20039;-75
2021/12/03 16:26:13;;;;;;;13.48;4.95;;;20.00;99.90;;;;;;5126687;27;20023;-74
2021/12/03 16:52:37;;;;;;;5.10;2.25;;;19.80;99.90;;;;;;5112535;28;20114;-76
2021/12/03 16:55:04;;;;;;;7.40;2.35;;;19.80;99.90;;;;;;5126363;28;20048;-76
2021/12/03 16:57:34;;;;;;;8.10;2.47;;;19.80;99.90;;;;;;5112024;28;20027;-77
2021/12/03 17:00:13;;;;;;;9.73;3.28;;;19.80;99.90;;;;;;5131397;28;20039;-77
2021/12/03 17:02:56;;;;;;;9.05;2.95;;;19.80;99.90;;;;;;5119640;28;20023;-76
2021/12/03 17:06:25;;;;;;;11.02;3.67;;;19.80;99.90;;;;;;5126659;28;20039;-76
2021/12/03 17:11:32;;;;;;;7.75;2.53;;;19.70;99.90;;;;;;5127537;28;20035;-77
2021/12/03 17:19:41;;;;;;;9.68;2.08;;;19.80;99.90;;;;;;5133062;28;20055;-76
2021/12/03 17:49:53;;;;;;;12.47;3.43;;;19.70;99.90;;;;;;5124740;27;20019;-78
2021/12/03 18:00:25;;;;;;;10.35;3.38;;;19.70;99.90;;;;;;5124525;27;20478;-78
2021/12/03 18:02:58;;;;;;;11.38;3.40;;;19.70;99.90;;;;;;5130143;27;20055;-78
2021/12/03 18:05:54;;;;;;;11.68;3.65;;;19.70;99.90;;;;;;5111652;27;20128;-78
2021/12/03 18:16:42;;;;;;;10.95;5.10;;;19.60;99.90;;;;;;5134642;27;20435;-78
2021/12/03 18:19:36;;;;;;;11.30;4.57;;;19.60;99.90;;;;;;5135373;27;20038;-79
2021/12/03 18:44:10;;;;;;;12.93;6.38;;;19.50;99.90;;;;;;5124349;27;20127;-79
2021/12/03 18:52:13;;;;;;;14.18;6.00;;;19.50;99.90;;;;;;5134818;27;20060;-76
2021/12/03 18:55:01;;;;;;;12.63;6.28;;;19.50;99.90;;;;;;5120398;27;20075;-80
2021/12/03 18:57:32;;;;;;;14.18;5.60;;;19.50;99.90;;;;;;5124693;27;20110;-79
2021/12/03 19:00:06;;;;;;;11.95;5.80;;;19.50;99.90;;;;;;5129973;27;20035;-81
2021/12/03 19:02:34;;;;;;;16.77;6.07;;;19.50;99.90;;;;;;5129643;27;20023;-80
2021/12/03 19:07:45;;;;;;;15.63;7.03;;;19.50;99.90;;;;;;5118246;27;20023;-80
2021/12/03 19:10:22;;;;;;;15.52;6.10;;;19.50;99.90;;;;;;5128883;27;20400;-79
2021/12/03 19:13:26;;;;;;;16.23;7.53;;;19.50;99.90;;;;;;5105880;27;20109;-81
2021/12/03 19:15:44;;;;;;;15.88;5.60;;;19.50;99.90;;;;;;5114459;27;20038;-81
2021/12/03 19:18:11;;;;;;;18.13;7.00;;;19.60;99.90;;;;;;5122574;27;20027;-81
2021/12/03 19:20:41;;;;;;;13.38;6.32;;;19.60;99.90;;;;;;5120700;27;20473;-82
2021/12/03 19:23:09;;;;;;;23.33;6.93;;;19.60;99.90;;;;;;5126944;27;20539;-82
2021/12/03 19:25:37;;;;;;;19.27;7.20;;;19.60;99.90;;;;;;5121505;27;20033;-80
2021/12/03 19:28:04;;;;;;;14.65;6.20;;;19.50;99.90;;;;;;5132320;27;20031;-81
2021/12/03 19:30:32;;;;;;;25.70;6.47;;;19.50;99.90;;;;;;5126790;27;20431;-78
2021/12/03 19:32:59;;;;;;;15.52;6.43;;;19.40;99.90;;;;;;5122043;27;20029;-78
2021/12/03 19:35:27;;;;;;;15.40;7.10;;;19.50;99.90;;;;;;5127284;27;21320;-81
2021/12/03 19:37:56;;;;;;;18.02;7.70;;;19.50;99.90;;;;;;5121470;27;20643;-79
2021/12/03 19:40:24;;;;;;;13.43;7.35;;;19.50;99.90;;;;;;5124505;27;20050;-79
2021/12/03 19:42:59;;;;;;;16.60;7.72;;;19.50;99.90;;;;;;5123456;27;20444;-81
2021/12/03 19:45:32;;;;;;;17.45;6.88;;;19.40;99.90;;;;;;5124764;27;20027;-80
2021/12/03 19:48:06;;;;;;;15.13;7.63;;;19.50;99.90;;;;;;5124628;27;20382;-81
2021/12/03 19:50:41;;;;;;;16.08;7.18;;;19.50;99.90;;;;;;5129285;27;20461;-80
2021/12/03 19:55:37;;;;;;;10.93;5.43;;;19.50;99.90;;;;;;5127778;27;20102;-80
2021/12/03 19:58:06;;;;;;;16.30;7.55;;;19.50;99.90;;;;;;5129774;27;20019;-81
2021/12/03 20:00:33;;;;;;;13.68;7.00;;;19.50;99.90;;;;;;5128216;27;20552;-82
2021/12/03 20:03:01;;;;;;;13.00;6.43;;;19.50;99.90;;;;;;5129072;27;20538;-82
2021/12/03 20:05:28;;;;;;;16.65;6.68;;;19.50;99.90;;;;;;5129029;27;20122;-81